West Valley City, UT

12:36 PM MST on December 26, 2014 (GMT -0700)
West Jordan-Angel Landing | Change Station
CLOSE
Current Station
Personal Weather Station
Location: West Jordan, UT
Elevation: 4455 ft
Nearby Weather Stations

Elev 4455 ft 40.61 °N, 111.95 °W | Updated 12 minutes ago

Overcast
Overcast
31.5 °F
Feels Like 25 °F
N
6.3
Wind Variable Wind from WNW

Today
High -- | Low -- °F
--% Chance of Precip.
Yesterday
High -- | Low -- °F
Precip. -- in
7:50 AM 5:06 PM
Waxing Crescent, 28% visible
Pressure 30.08 in
Visibility 10.0 miles
Clouds Mostly Cloudy 4800 ft
Mostly Cloudy 20000 ft
Windchill 25 °F
Dew Point 21 °F
Humidity 65%
Rainfall 0.00 in
Snow Depth Not available.
UV 1 out of 12
Pollen .10 out of 12
Air Quality Not available.
Flu Activity Not available.
METAR KSLC 261853Z 35009KT 10SM BKN048 BKN200 M03/M07 A3002 RMK AO2 SLP185 T10281072

More Conditions Fewer Conditions

Pressure 30.08 in
Visibility 10.0 miles
Clouds Mostly Cloudy 4800 ft
Mostly Cloudy 20000 ft
Windchill 25 °F
Dew Point 21 °F
Humidity 65%
Rainfall 0.00 in
Snow Depth Not available.
UV 1 out of 12
Pollen .10 out of 12
Air Quality Not available.
Flu Activity Not available.
METAR KSLC 261853Z 35009KT 10SM BKN048 BKN200 M03/M07 A3002 RMK AO2 SLP185 T10281072

More Conditions Fewer Conditions

10-Day Weather Forecast

Almanac

Astronomy

Dec. 26, 2014 Rise Set
Actual Time
Civil Twilight
Nautical Twilight
Astronomical Twilight
Moon
Length of Visible Light
Length of Day
Tomorrow will be .
, % of the Moon is Illuminated

Today's Extremes

State Highs State Lows

Community

WunderPhotos

Upload Photos

1,780,675 photos uploaded!

WunderBlogs® & News

Nearby

Air Quality

  Air Quality AQ Index Pollutant
Not available.

Snow Depth

Station Depth Elevation

Earthquake Activity

City Distance Mag. Time & Date
Minimum magnitude displayed is 2.5.

Coastal Water Temperatures

Place Temperature

Nearby Weather Stations